sensor_id;sensor_type;location;lat;lon;timestamp;P1;durP1;ratioP1;P2;durP2;ratioP2
75548;SDS011;64133;56.002;37.208;2023-07-08T00:00:44;12.60;;;6.78;;
75548;SDS011;64133;56.002;37.208;2023-07-08T00:05:49;14.35;;;7.62;;
75548;SDS011;64133;56.002;37.208;2023-07-08T00:10:55;13.88;;;6.53;;
75548;SDS011;64133;56.002;37.208;2023-07-08T00:15:59;13.03;;;7.15;;
75548;SDS011;64133;56.002;37.208;2023-07-08T00:21:07;11.83;;;7.33;;
75548;SDS011;64133;56.002;37.208;2023-07-08T00:26:13;11.93;;;6.78;;
75548;SDS011;64133;56.002;37.208;2023-07-08T00:31:18;11.97;;;6.30;;
75548;SDS011;64133;56.002;37.208;2023-07-08T00:36:24;14.38;;;7.30;;
75548;SDS011;64133;56.002;37.208;2023-07-08T00:41:29;12.35;;;6.30;;
75548;SDS011;64133;56.002;37.208;2023-07-08T00:46:35;10.28;;;6.30;;
75548;SDS011;64133;56.002;37.208;2023-07-08T00:51:41;11.05;;;6.37;;
75548;SDS011;64133;56.002;37.208;2023-07-08T00:56:46;17.57;;;6.97;;
75548;SDS011;64133;56.002;37.208;2023-07-08T01:01:51;10.20;;;6.25;;
75548;SDS011;64133;56.002;37.208;2023-07-08T01:06:56;12.53;;;6.83;;
75548;SDS011;64133;56.002;37.208;2023-07-08T01:12:01;11.30;;;6.40;;
75548;SDS011;64133;56.002;37.208;2023-07-08T01:17:05;11.70;;;6.45;;
75548;SDS011;64133;56.002;37.208;2023-07-08T01:22:10;14.83;;;7.12;;
75548;SDS011;64133;56.002;37.208;2023-07-08T01:27:16;13.20;;;7.22;;
75548;SDS011;64133;56.002;37.208;2023-07-08T01:32:19;11.15;;;6.45;;
75548;SDS011;64133;56.002;37.208;2023-07-08T01:37:24;12.68;;;6.60;;
75548;SDS011;64133;56.002;37.208;2023-07-08T01:42:30;10.90;;;6.30;;
75548;SDS011;64133;56.002;37.208;2023-07-08T01:47:35;11.38;;;6.50;;
75548;SDS011;64133;56.002;37.208;2023-07-08T01:52:40;11.48;;;6.30;;
75548;SDS011;64133;56.002;37.208;2023-07-08T01:57:45;12.07;;;6.17;;
75548;SDS011;64133;56.002;37.208;2023-07-08T02:02:50;12.40;;;6.65;;
75548;SDS011;64133;56.002;37.208;2023-07-08T02:07:54;11.38;;;6.03;;
75548;SDS011;64133;56.002;37.208;2023-07-08T02:12:59;12.98;;;7.00;;
75548;SDS011;64133;56.002;37.208;2023-07-08T02:18:04;17.37;;;6.25;;
75548;SDS011;64133;56.002;37.208;2023-07-08T02:23:08;14.03;;;7.33;;
75548;SDS011;64133;56.002;37.208;2023-07-08T02:28:13;13.72;;;7.70;;
75548;SDS011;64133;56.002;37.208;2023-07-08T02:33:18;13.45;;;7.20;;
75548;SDS011;64133;56.002;37.208;2023-07-08T02:38:23;15.53;;;7.45;;
75548;SDS011;64133;56.002;37.208;2023-07-08T02:43:27;12.15;;;7.25;;
75548;SDS011;64133;56.002;37.208;2023-07-08T02:48:32;14.30;;;7.22;;
75548;SDS011;64133;56.002;37.208;2023-07-08T02:53:37;12.73;;;7.37;;
75548;SDS011;64133;56.002;37.208;2023-07-08T02:58:41;13.83;;;7.28;;
75548;SDS011;64133;56.002;37.208;2023-07-08T03:03:46;11.05;;;6.80;;
75548;SDS011;64133;56.002;37.208;2023-07-08T03:08:51;12.85;;;7.33;;
75548;SDS011;64133;56.002;37.208;2023-07-08T03:13:56;14.07;;;7.60;;
75548;SDS011;64133;56.002;37.208;2023-07-08T03:19:00;12.98;;;7.10;;
75548;SDS011;64133;56.002;37.208;2023-07-08T03:24:07;10.50;;;6.37;;
75548;SDS011;64133;56.002;37.208;2023-07-08T03:29:13;12.80;;;6.47;;
75548;SDS011;64133;56.002;37.208;2023-07-08T03:34:18;12.53;;;7.10;;
75548;SDS011;64133;56.002;37.208;2023-07-08T03:39:23;13.78;;;6.78;;
75548;SDS011;64133;56.002;37.208;2023-07-08T03:44:27;12.40;;;7.12;;
75548;SDS011;64133;56.002;37.208;2023-07-08T03:49:32;12.60;;;6.20;;
75548;SDS011;64133;56.002;37.208;2023-07-08T03:54:37;12.25;;;6.42;;
75548;SDS011;64133;56.002;37.208;2023-07-08T03:59:41;13.78;;;6.65;;
75548;SDS011;64133;56.002;37.208;2023-07-08T04:04:46;11.03;;;5.75;;
75548;SDS011;64133;56.002;37.208;2023-07-08T04:09:51;9.93;;;5.40;;
75548;SDS011;64133;56.002;37.208;2023-07-08T04:14:56;12.88;;;5.90;;
75548;SDS011;64133;56.002;37.208;2023-07-08T04:20:02;13.45;;;6.00;;
75548;SDS011;64133;56.002;37.208;2023-07-08T04:25:08;9.53;;;5.60;;
75548;SDS011;64133;56.002;37.208;2023-07-08T04:30:17;9.48;;;5.75;;
75548;SDS011;64133;56.002;37.208;2023-07-08T04:35:46;9.55;;;6.03;;
75548;SDS011;64133;56.002;37.208;2023-07-08T04:40:50;11.65;;;6.30;;
75548;SDS011;64133;56.002;37.208;2023-07-08T04:45:54;10.00;;;5.67;;
75548;SDS011;64133;56.002;37.208;2023-07-08T04:50:59;8.00;;;4.60;;
75548;SDS011;64133;56.002;37.208;2023-07-08T04:56:04;8.28;;;4.95;;
75548;SDS011;64133;56.002;37.208;2023-07-08T05:01:09;7.95;;;5.17;;
75548;SDS011;64133;56.002;37.208;2023-07-08T05:06:14;7.95;;;4.45;;
75548;SDS011;64133;56.002;37.208;2023-07-08T05:11:18;8.48;;;5.45;;
75548;SDS011;64133;56.002;37.208;2023-07-08T05:16:23;6.65;;;3.90;;
75548;SDS011;64133;56.002;37.208;2023-07-08T05:21:28;10.00;;;4.53;;
75548;SDS011;64133;56.002;37.208;2023-07-08T05:26:33;10.25;;;5.05;;
75548;SDS011;64133;56.002;37.208;2023-07-08T05:31:37;8.25;;;5.08;;
75548;SDS011;64133;56.002;37.208;2023-07-08T05:36:42;6.85;;;3.75;;
75548;SDS011;64133;56.002;37.208;2023-07-08T05:41:47;9.88;;;4.28;;
75548;SDS011;64133;56.002;37.208;2023-07-08T05:46:52;7.50;;;4.60;;
75548;SDS011;64133;56.002;37.208;2023-07-08T05:51:56;9.68;;;4.92;;
75548;SDS011;64133;56.002;37.208;2023-07-08T05:57:01;9.38;;;4.80;;
75548;SDS011;64133;56.002;37.208;2023-07-08T06:02:06;7.65;;;5.15;;
75548;SDS011;64133;56.002;37.208;2023-07-08T06:07:11;10.90;;;5.40;;
75548;SDS011;64133;56.002;37.208;2023-07-08T06:12:16;7.90;;;5.03;;
75548;SDS011;64133;56.002;37.208;2023-07-08T06:17:21;8.63;;;5.40;;
75548;SDS011;64133;56.002;37.208;2023-07-08T06:22:26;9.55;;;5.03;;
75548;SDS011;64133;56.002;37.208;2023-07-08T06:27:30;8.43;;;4.72;;
75548;SDS011;64133;56.002;37.208;2023-07-08T06:32:35;7.40;;;4.37;;
75548;SDS011;64133;56.002;37.208;2023-07-08T06:37:40;8.18;;;4.40;;
75548;SDS011;64133;56.002;37.208;2023-07-08T06:42:45;8.48;;;4.53;;
75548;SDS011;64133;56.002;37.208;2023-07-08T06:47:50;8.83;;;5.00;;
75548;SDS011;64133;56.002;37.208;2023-07-08T06:58:08;7.53;;;4.92;;
75548;SDS011;64133;56.002;37.208;2023-07-08T07:03:12;8.48;;;5.17;;
75548;SDS011;64133;56.002;37.208;2023-07-08T07:08:17;7.08;;;4.08;;
75548;SDS011;64133;56.002;37.208;2023-07-08T07:13:22;6.65;;;4.78;;
75548;SDS011;64133;56.002;37.208;2023-07-08T07:18:27;7.28;;;4.22;;
75548;SDS011;64133;56.002;37.208;2023-07-08T07:23:32;8.38;;;4.15;;
75548;SDS011;64133;56.002;37.208;2023-07-08T07:28:36;6.40;;;4.33;;
75548;SDS011;64133;56.002;37.208;2023-07-08T07:33:41;8.45;;;5.55;;
75548;SDS011;64133;56.002;37.208;2023-07-08T07:38:46;5.92;;;4.12;;
75548;SDS011;64133;56.002;37.208;2023-07-08T07:43:51;7.22;;;4.17;;
75548;SDS011;64133;56.002;37.208;2023-07-08T07:48:56;8.33;;;4.00;;
75548;SDS011;64133;56.002;37.208;2023-07-08T07:54:00;7.83;;;3.98;;
75548;SDS011;64133;56.002;37.208;2023-07-08T07:59:05;5.85;;;4.17;;
75548;SDS011;64133;56.002;37.208;2023-07-08T08:04:10;5.70;;;3.77;;
75548;SDS011;64133;56.002;37.208;2023-07-08T08:09:15;6.40;;;4.10;;
75548;SDS011;64133;56.002;37.208;2023-07-08T08:14:19;5.50;;;3.17;;
75548;SDS011;64133;56.002;37.208;2023-07-08T08:19:24;5.00;;;2.90;;
75548;SDS011;64133;56.002;37.208;2023-07-08T08:24:29;4.30;;;3.20;;
75548;SDS011;64133;56.002;37.208;2023-07-08T08:29:34;5.00;;;2.70;;
75548;SDS011;64133;56.002;37.208;2023-07-08T08:34:42;4.20;;;2.80;;
75548;SDS011;64133;56.002;37.208;2023-07-08T08:39:47;4.05;;;2.83;;
75548;SDS011;64133;56.002;37.208;2023-07-08T08:44:52;3.77;;;1.92;;
75548;SDS011;64133;56.002;37.208;2023-07-08T08:49:57;3.92;;;2.62;;
75548;SDS011;64133;56.002;37.208;2023-07-08T08:55:11;3.77;;;1.95;;
75548;SDS011;64133;56.002;37.208;2023-07-08T09:00:26;5.10;;;2.77;;
75548;SDS011;64133;56.002;37.208;2023-07-08T09:05:29;3.05;;;2.02;;
75548;SDS011;64133;56.002;37.208;2023-07-08T09:10:39;3.92;;;2.60;;
75548;SDS011;64133;56.002;37.208;2023-07-08T09:15:43;6.12;;;2.10;;
75548;SDS011;64133;56.002;37.208;2023-07-08T09:20:55;4.00;;;2.10;;
75548;SDS011;64133;56.002;37.208;2023-07-08T09:26:04;2.52;;;1.90;;
75548;SDS011;64133;56.002;37.208;2023-07-08T09:31:10;3.40;;;1.70;;
75548;SDS011;64133;56.002;37.208;2023-07-08T09:36:17;4.92;;;3.37;;
75548;SDS011;64133;56.002;37.208;2023-07-08T09:41:31;5.92;;;3.02;;
75548;SDS011;64133;56.002;37.208;2023-07-08T09:46:36;3.83;;;2.75;;
75548;SDS011;64133;56.002;37.208;2023-07-08T09:51:41;3.75;;;2.50;;
75548;SDS011;64133;56.002;37.208;2023-07-08T09:56:49;4.83;;;1.80;;
75548;SDS011;64133;56.002;37.208;2023-07-08T10:02:14;5.90;;;2.40;;
75548;SDS011;64133;56.002;37.208;2023-07-08T10:07:16;3.30;;;2.02;;
75548;SDS011;64133;56.002;37.208;2023-07-08T10:12:21;3.20;;;1.60;;
75548;SDS011;64133;56.002;37.208;2023-07-08T10:17:25;3.22;;;1.57;;
75548;SDS011;64133;56.002;37.208;2023-07-08T10:22:33;3.12;;;1.75;;
75548;SDS011;64133;56.002;37.208;2023-07-08T10:27:40;3.05;;;2.05;;
75548;SDS011;64133;56.002;37.208;2023-07-08T10:32:48;5.03;;;1.80;;
75548;SDS011;64133;56.002;37.208;2023-07-08T10:37:57;4.62;;;2.52;;
75548;SDS011;64133;56.002;37.208;2023-07-08T10:43:08;3.02;;;1.85;;
75548;SDS011;64133;56.002;37.208;2023-07-08T10:48:35;4.45;;;1.82;;
75548;SDS011;64133;56.002;37.208;2023-07-08T10:53:58;2.62;;;1.80;;
75548;SDS011;64133;56.002;37.208;2023-07-08T10:59:33;2.33;;;1.42;;
75548;SDS011;64133;56.002;37.208;2023-07-08T11:04:45;4.33;;;1.80;;
75548;SDS011;64133;56.002;37.208;2023-07-08T11:09:53;4.35;;;2.12;;
75548;SDS011;64133;56.002;37.208;2023-07-08T11:14:58;3.58;;;1.90;;
75548;SDS011;64133;56.002;37.208;2023-07-08T11:20:03;3.22;;;1.98;;
75548;SDS011;64133;56.002;37.208;2023-07-08T11:25:13;2.10;;;1.40;;
75548;SDS011;64133;56.002;37.208;2023-07-08T11:30:17;2.75;;;1.37;;
75548;SDS011;64133;56.002;37.208;2023-07-08T11:35:23;2.72;;;1.32;;
75548;SDS011;64133;56.002;37.208;2023-07-08T11:40:27;4.42;;;1.62;;
75548;SDS011;64133;56.002;37.208;2023-07-08T11:45:32;3.17;;;1.30;;
75548;SDS011;64133;56.002;37.208;2023-07-08T11:50:37;2.58;;;1.30;;
75548;SDS011;64133;56.002;37.208;2023-07-08T11:55:44;2.00;;;1.00;;
75548;SDS011;64133;56.002;37.208;2023-07-08T12:00:52;5.70;;;1.82;;
75548;SDS011;64133;56.002;37.208;2023-07-08T12:05:57;5.42;;;1.65;;
75548;SDS011;64133;56.002;37.208;2023-07-08T12:11:02;2.72;;;1.30;;
75548;SDS011;64133;56.002;37.208;2023-07-08T12:16:09;3.47;;;1.72;;
75548;SDS011;64133;56.002;37.208;2023-07-08T12:21:17;4.15;;;1.47;;
75548;SDS011;64133;56.002;37.208;2023-07-08T12:31:25;2.15;;;1.32;;
75548;SDS011;64133;56.002;37.208;2023-07-08T12:36:30;2.62;;;1.30;;
75548;SDS011;64133;56.002;37.208;2023-07-08T12:41:34;2.35;;;1.27;;
75548;SDS011;64133;56.002;37.208;2023-07-08T12:51:56;3.05;;;1.70;;
75548;SDS011;64133;56.002;37.208;2023-07-08T12:57:02;2.08;;;1.25;;
75548;SDS011;64133;56.002;37.208;2023-07-08T13:02:10;4.87;;;1.80;;
75548;SDS011;64133;56.002;37.208;2023-07-08T13:07:20;4.67;;;1.20;;
75548;SDS011;64133;56.002;37.208;2023-07-08T13:12:23;2.95;;;1.37;;
75548;SDS011;64133;56.002;37.208;2023-07-08T13:17:28;3.35;;;1.57;;
75548;SDS011;64133;56.002;37.208;2023-07-08T13:22:33;2.83;;;1.37;;
75548;SDS011;64133;56.002;37.208;2023-07-08T13:27:37;3.20;;;1.45;;
75548;SDS011;64133;56.002;37.208;2023-07-08T13:32:42;2.65;;;1.27;;
75548;SDS011;64133;56.002;37.208;2023-07-08T13:37:48;2.20;;;1.40;;
75548;SDS011;64133;56.002;37.208;2023-07-08T13:42:57;6.72;;;1.75;;
75548;SDS011;64133;56.002;37.208;2023-07-08T13:48:08;3.65;;;1.22;;
75548;SDS011;64133;56.002;37.208;2023-07-08T13:53:17;3.17;;;1.60;;
75548;SDS011;64133;56.002;37.208;2023-07-08T13:58:25;3.70;;;1.67;;
75548;SDS011;64133;56.002;37.208;2023-07-08T14:08:47;2.05;;;1.15;;
75548;SDS011;64133;56.002;37.208;2023-07-08T14:13:52;4.15;;;1.27;;
75548;SDS011;64133;56.002;37.208;2023-07-08T14:18:57;4.58;;;1.80;;
75548;SDS011;64133;56.002;37.208;2023-07-08T14:24:02;7.95;;;1.95;;
75548;SDS011;64133;56.002;37.208;2023-07-08T14:29:08;7.00;;;1.40;;
75548;SDS011;64133;56.002;37.208;2023-07-08T14:34:14;3.37;;;2.00;;
75548;SDS011;64133;56.002;37.208;2023-07-08T14:39:18;3.62;;;1.90;;
75548;SDS011;64133;56.002;37.208;2023-07-08T14:44:23;3.87;;;2.45;;
75548;SDS011;64133;56.002;37.208;2023-07-08T14:49:27;3.52;;;1.75;;
75548;SDS011;64133;56.002;37.208;2023-07-08T14:54:32;7.25;;;1.80;;
75548;SDS011;64133;56.002;37.208;2023-07-08T14:59:37;2.35;;;1.27;;
75548;SDS011;64133;56.002;37.208;2023-07-08T15:04:45;3.00;;;1.52;;
75548;SDS011;64133;56.002;37.208;2023-07-08T15:09:49;2.45;;;1.45;;
75548;SDS011;64133;56.002;37.208;2023-07-08T15:14:54;3.20;;;1.60;;
75548;SDS011;64133;56.002;37.208;2023-07-08T15:25:32;5.87;;;2.62;;
75548;SDS011;64133;56.002;37.208;2023-07-08T15:30:39;3.30;;;1.80;;
75548;SDS011;64133;56.002;37.208;2023-07-08T15:35:44;3.98;;;1.92;;
75548;SDS011;64133;56.002;37.208;2023-07-08T15:40:49;5.65;;;1.70;;
75548;SDS011;64133;56.002;37.208;2023-07-08T15:45:54;4.90;;;1.60;;
75548;SDS011;64133;56.002;37.208;2023-07-08T15:50:58;2.83;;;1.80;;
75548;SDS011;64133;56.002;37.208;2023-07-08T15:56:06;2.70;;;1.62;;
75548;SDS011;64133;56.002;37.208;2023-07-08T16:01:14;5.33;;;1.92;;
75548;SDS011;64133;56.002;37.208;2023-07-08T16:06:17;3.83;;;1.92;;
75548;SDS011;64133;56.002;37.208;2023-07-08T16:11:23;4.75;;;1.87;;
75548;SDS011;64133;56.002;37.208;2023-07-08T16:16:27;2.72;;;1.50;;
75548;SDS011;64133;56.002;37.208;2023-07-08T16:21:31;3.22;;;1.70;;
75548;SDS011;64133;56.002;37.208;2023-07-08T16:26:36;2.33;;;1.35;;
75548;SDS011;64133;56.002;37.208;2023-07-08T16:31:47;3.62;;;1.90;;
75548;SDS011;64133;56.002;37.208;2023-07-08T16:36:54;2.40;;;1.30;;
75548;SDS011;64133;56.002;37.208;2023-07-08T16:41:59;4.25;;;2.12;;
75548;SDS011;64133;56.002;37.208;2023-07-08T16:47:06;3.98;;;1.90;;
75548;SDS011;64133;56.002;37.208;2023-07-08T16:52:12;3.90;;;2.05;;
75548;SDS011;64133;56.002;37.208;2023-07-08T16:57:16;2.33;;;1.47;;
75548;SDS011;64133;56.002;37.208;2023-07-08T17:02:21;2.60;;;1.52;;
75548;SDS011;64133;56.002;37.208;2023-07-08T17:07:25;3.52;;;1.82;;
75548;SDS011;64133;56.002;37.208;2023-07-08T17:12:30;2.77;;;1.32;;
75548;SDS011;64133;56.002;37.208;2023-07-08T17:17:35;3.52;;;1.57;;
75548;SDS011;64133;56.002;37.208;2023-07-08T17:22:40;5.17;;;1.90;;
75548;SDS011;64133;56.002;37.208;2023-07-08T17:27:44;3.20;;;1.67;;
75548;SDS011;64133;56.002;37.208;2023-07-08T17:32:50;3.80;;;1.60;;
75548;SDS011;64133;56.002;37.208;2023-07-08T17:37:54;4.87;;;2.35;;
75548;SDS011;64133;56.002;37.208;2023-07-08T17:42:59;5.62;;;2.40;;
75548;SDS011;64133;56.002;37.208;2023-07-08T17:48:04;6.30;;;3.02;;
75548;SDS011;64133;56.002;37.208;2023-07-08T17:53:09;6.67;;;3.02;;
75548;SDS011;64133;56.002;37.208;2023-07-08T17:58:14;3.55;;;2.58;;
75548;SDS011;64133;56.002;37.208;2023-07-08T18:03:19;9.58;;;4.08;;
75548;SDS011;64133;56.002;37.208;2023-07-08T18:08:23;4.42;;;2.45;;
75548;SDS011;64133;56.002;37.208;2023-07-08T18:13:28;6.03;;;3.08;;
75548;SDS011;64133;56.002;37.208;2023-07-08T18:18:31;7.33;;;3.00;;
75548;SDS011;64133;56.002;37.208;2023-07-08T18:23:36;8.00;;;3.30;;
75548;SDS011;64133;56.002;37.208;2023-07-08T18:28:41;8.68;;;5.08;;
75548;SDS011;64133;56.002;37.208;2023-07-08T18:33:45;13.65;;;7.47;;
75548;SDS011;64133;56.002;37.208;2023-07-08T18:38:50;19.62;;;6.80;;
75548;SDS011;64133;56.002;37.208;2023-07-08T18:43:55;12.75;;;6.45;;
75548;SDS011;64133;56.002;37.208;2023-07-08T18:49:00;10.85;;;5.25;;
75548;SDS011;64133;56.002;37.208;2023-07-08T18:54:07;9.93;;;4.53;;
75548;SDS011;64133;56.002;37.208;2023-07-08T18:59:15;6.95;;;4.05;;
75548;SDS011;64133;56.002;37.208;2023-07-08T19:04:22;12.35;;;7.12;;
75548;SDS011;64133;56.002;37.208;2023-07-08T19:09:27;20.12;;;8.33;;
75548;SDS011;64133;56.002;37.208;2023-07-08T19:14:31;14.83;;;8.23;;
75548;SDS011;64133;56.002;37.208;2023-07-08T19:19:36;10.78;;;5.95;;
75548;SDS011;64133;56.002;37.208;2023-07-08T19:24:40;10.93;;;7.03;;
75548;SDS011;64133;56.002;37.208;2023-07-08T19:29:45;10.20;;;5.40;;
75548;SDS011;64133;56.002;37.208;2023-07-08T19:34:50;11.05;;;6.72;;
75548;SDS011;64133;56.002;37.208;2023-07-08T19:39:55;17.62;;;7.65;;
75548;SDS011;64133;56.002;37.208;2023-07-08T19:45:00;14.28;;;7.10;;
75548;SDS011;64133;56.002;37.208;2023-07-08T19:50:07;14.38;;;6.30;;
75548;SDS011;64133;56.002;37.208;2023-07-08T19:55:11;7.80;;;3.40;;
75548;SDS011;64133;56.002;37.208;2023-07-08T20:00:27;7.00;;;3.35;;
75548;SDS011;64133;56.002;37.208;2023-07-08T20:05:32;6.47;;;3.30;;
75548;SDS011;64133;56.002;37.208;2023-07-08T20:10:36;8.73;;;3.58;;
75548;SDS011;64133;56.002;37.208;2023-07-08T20:15:40;8.10;;;4.05;;
75548;SDS011;64133;56.002;37.208;2023-07-08T20:20:45;9.08;;;4.72;;
75548;SDS011;64133;56.002;37.208;2023-07-08T20:25:50;9.38;;;4.15;;
75548;SDS011;64133;56.002;37.208;2023-07-08T20:30:55;8.65;;;3.85;;
75548;SDS011;64133;56.002;37.208;2023-07-08T20:35:59;5.80;;;3.20;;
75548;SDS011;64133;56.002;37.208;2023-07-08T20:41:04;8.18;;;3.80;;
75548;SDS011;64133;56.002;37.208;2023-07-08T20:46:14;7.58;;;3.85;;
75548;SDS011;64133;56.002;37.208;2023-07-08T20:51:18;14.23;;;4.20;;
75548;SDS011;64133;56.002;37.208;2023-07-08T20:56:26;6.35;;;3.27;;
75548;SDS011;64133;56.002;37.208;2023-07-08T21:01:32;4.72;;;3.08;;
75548;SDS011;64133;56.002;37.208;2023-07-08T21:06:36;15.65;;;3.47;;
75548;SDS011;64133;56.002;37.208;2023-07-08T21:11:41;6.17;;;2.67;;
75548;SDS011;64133;56.002;37.208;2023-07-08T21:16:46;11.30;;;3.60;;
75548;SDS011;64133;56.002;37.208;2023-07-08T21:21:50;7.00;;;3.37;;
75548;SDS011;64133;56.002;37.208;2023-07-08T21:26:55;9.33;;;3.83;;
75548;SDS011;64133;56.002;37.208;2023-07-08T21:32:00;10.20;;;3.52;;
75548;SDS011;64133;56.002;37.208;2023-07-08T21:37:05;7.22;;;3.70;;
75548;SDS011;64133;56.002;37.208;2023-07-08T21:42:10;7.47;;;4.47;;
75548;SDS011;64133;56.002;37.208;2023-07-08T21:47:15;7.20;;;3.05;;
75548;SDS011;64133;56.002;37.208;2023-07-08T21:52:21;6.33;;;3.12;;
75548;SDS011;64133;56.002;37.208;2023-07-08T21:57:26;8.85;;;3.45;;
75548;SDS011;64133;56.002;37.208;2023-07-08T22:02:31;12.70;;;4.33;;
75548;SDS011;64133;56.002;37.208;2023-07-08T22:07:36;7.50;;;3.95;;
75548;SDS011;64133;56.002;37.208;2023-07-08T22:12:40;10.98;;;4.30;;
75548;SDS011;64133;56.002;37.208;2023-07-08T22:17:45;8.30;;;3.80;;
75548;SDS011;64133;56.002;37.208;2023-07-08T22:22:50;6.87;;;3.85;;
75548;SDS011;64133;56.002;37.208;2023-07-08T22:27:55;8.35;;;3.80;;
75548;SDS011;64133;56.002;37.208;2023-07-08T22:33:00;8.30;;;4.78;;
75548;SDS011;64133;56.002;37.208;2023-07-08T22:38:05;8.53;;;4.10;;
75548;SDS011;64133;56.002;37.208;2023-07-08T22:43:13;8.83;;;3.85;;
75548;SDS011;64133;56.002;37.208;2023-07-08T22:48:16;9.58;;;4.03;;
75548;SDS011;64133;56.002;37.208;2023-07-08T22:53:31;10.90;;;5.15;;
75548;SDS011;64133;56.002;37.208;2023-07-08T22:58:35;12.90;;;5.20;;
75548;SDS011;64133;56.002;37.208;2023-07-08T23:03:40;9.38;;;5.15;;
75548;SDS011;64133;56.002;37.208;2023-07-08T23:08:44;11.90;;;5.20;;
75548;SDS011;64133;56.002;37.208;2023-07-08T23:13:49;8.68;;;4.85;;
75548;SDS011;64133;56.002;37.208;2023-07-08T23:18:54;8.48;;;4.53;;
75548;SDS011;64133;56.002;37.208;2023-07-08T23:23:59;11.22;;;4.87;;
75548;SDS011;64133;56.002;37.208;2023-07-08T23:29:04;8.30;;;4.33;;
75548;SDS011;64133;56.002;37.208;2023-07-08T23:34:09;8.50;;;3.92;;
75548;SDS011;64133;56.002;37.208;2023-07-08T23:44:30;8.63;;;4.08;;
75548;SDS011;64133;56.002;37.208;2023-07-08T23:49:35;7.22;;;4.22;;
75548;SDS011;64133;56.002;37.208;2023-07-08T23:54:45;5.95;;;3.65;;
75548;SDS011;64133;56.002;37.208;2023-07-08T23:59:50;7.90;;;3.80;;
